sensor_id;sensor_type;location;lat;lon;timestamp;temperature;humidity
16347;DHT22;8283;48.504;13.734;2024-03-17T00:01:29;12.40;81.10
16347;DHT22;8283;48.504;13.734;2024-03-17T00:03:48;12.40;80.40
16347;DHT22;8283;48.504;13.734;2024-03-17T00:06:08;12.30;80.40
16347;DHT22;8283;48.504;13.734;2024-03-17T00:08:28;12.20;80.40
16347;DHT22;8283;48.504;13.734;2024-03-17T00:10:50;12.20;80.50
16347;DHT22;8283;48.504;13.734;2024-03-17T00:13:10;12.10;80.70
16347;DHT22;8283;48.504;13.734;2024-03-17T00:15:29;12.10;80.60
16347;DHT22;8283;48.504;13.734;2024-03-17T00:17:49;12.00;80.50
16347;DHT22;8283;48.504;13.734;2024-03-17T00:20:08;12.00;80.70
16347;DHT22;8283;48.504;13.734;2024-03-17T00:22:37;12.00;80.90
16347;DHT22;8283;48.504;13.734;2024-03-17T00:24:58;11.90;80.90
16347;DHT22;8283;48.504;13.734;2024-03-17T00:27:18;11.90;81.00
16347;DHT22;8283;48.504;13.734;2024-03-17T00:29:38;11.30;80.80
16347;DHT22;8283;48.504;13.734;2024-03-17T00:31:57;11.90;81.20
16347;DHT22;8283;48.504;13.734;2024-03-17T00:34:16;11.90;81.20
16347;DHT22;8283;48.504;13.734;2024-03-17T00:36:37;11.90;81.40
16347;DHT22;8283;48.504;13.734;2024-03-17T00:38:56;11.90;81.20
16347;DHT22;8283;48.504;13.734;2024-03-17T00:41:16;12.00;81.40
16347;DHT22;8283;48.504;13.734;2024-03-17T00:43:35;12.00;81.40
16347;DHT22;8283;48.504;13.734;2024-03-17T00:45:56;12.00;81.40
16347;DHT22;8283;48.504;13.734;2024-03-17T00:48:16;12.00;81.50
16347;DHT22;8283;48.504;13.734;2024-03-17T00:50:35;12.00;81.50
16347;DHT22;8283;48.504;13.734;2024-03-17T00:52:54;12.00;81.40
16347;DHT22;8283;48.504;13.734;2024-03-17T00:55:13;12.00;81.40
16347;DHT22;8283;48.504;13.734;2024-03-17T00:57:33;12.00;81.50
16347;DHT22;8283;48.504;13.734;2024-03-17T00:59:52;11.50;81.20
16347;DHT22;8283;48.504;13.734;2024-03-17T01:02:12;12.00;81.50
16347;DHT22;8283;48.504;13.734;2024-03-17T01:04:32;12.00;81.40
16347;DHT22;8283;48.504;13.734;2024-03-17T01:06:53;12.00;81.30
16347;DHT22;8283;48.504;13.734;2024-03-17T01:09:12;11.90;81.30
16347;DHT22;8283;48.504;13.734;2024-03-17T01:11:32;11.90;81.50
16347;DHT22;8283;48.504;13.734;2024-03-17T01:13:51;11.90;81.60
16347;DHT22;8283;48.504;13.734;2024-03-17T01:16:10;11.90;81.70
16347;DHT22;8283;48.504;13.734;2024-03-17T01:18:29;11.80;81.90
16347;DHT22;8283;48.504;13.734;2024-03-17T01:20:49;11.80;82.00
16347;DHT22;8283;48.504;13.734;2024-03-17T01:23:08;11.80;82.00
16347;DHT22;8283;48.504;13.734;2024-03-17T01:25:28;11.80;82.00
16347;DHT22;8283;48.504;13.734;2024-03-17T01:27:48;11.90;82.10
16347;DHT22;8283;48.504;13.734;2024-03-17T01:30:08;11.80;82.10
16347;DHT22;8283;48.504;13.734;2024-03-17T01:32:28;11.80;82.00
16347;DHT22;8283;48.504;13.734;2024-03-17T01:34:47;11.90;82.00
16347;DHT22;8283;48.504;13.734;2024-03-17T01:37:07;11.90;82.00
16347;DHT22;8283;48.504;13.734;2024-03-17T01:39:26;11.90;81.90
16347;DHT22;8283;48.504;13.734;2024-03-17T01:41:46;11.90;81.80
16347;DHT22;8283;48.504;13.734;2024-03-17T01:44:06;11.90;81.80
16347;DHT22;8283;48.504;13.734;2024-03-17T01:46:26;11.90;81.90
16347;DHT22;8283;48.504;13.734;2024-03-17T01:48:47;11.90;82.00
16347;DHT22;8283;48.504;13.734;2024-03-17T01:51:07;11.90;81.90
16347;DHT22;8283;48.504;13.734;2024-03-17T01:53:27;11.90;81.80
16347;DHT22;8283;48.504;13.734;2024-03-17T01:55:47;11.90;81.70
16347;DHT22;8283;48.504;13.734;2024-03-17T01:58:06;11.90;81.50
16347;DHT22;8283;48.504;13.734;2024-03-17T02:00:29;11.90;81.60
16347;DHT22;8283;48.504;13.734;2024-03-17T02:02:50;11.90;81.50
16347;DHT22;8283;48.504;13.734;2024-03-17T02:05:10;11.90;81.50
16347;DHT22;8283;48.504;13.734;2024-03-17T02:07:30;11.80;81.40
16347;DHT22;8283;48.504;13.734;2024-03-17T02:09:49;11.80;81.30
16347;DHT22;8283;48.504;13.734;2024-03-17T02:12:08;11.80;81.20
16347;DHT22;8283;48.504;13.734;2024-03-17T02:14:28;11.10;80.90
16347;DHT22;8283;48.504;13.734;2024-03-17T02:16:47;11.70;81.20
16347;DHT22;8283;48.504;13.734;2024-03-17T02:19:07;11.70;81.20
16347;DHT22;8283;48.504;13.734;2024-03-17T02:21:27;11.70;81.20
16347;DHT22;8283;48.504;13.734;2024-03-17T02:23:46;11.70;81.20
16347;DHT22;8283;48.504;13.734;2024-03-17T02:26:05;11.70;81.20
16347;DHT22;8283;48.504;13.734;2024-03-17T02:28:25;11.70;81.10
16347;DHT22;8283;48.504;13.734;2024-03-17T02:30:44;11.60;81.00
16347;DHT22;8283;48.504;13.734;2024-03-17T02:33:04;11.60;81.00
16347;DHT22;8283;48.504;13.734;2024-03-17T02:35:24;11.60;81.00
16347;DHT22;8283;48.504;13.734;2024-03-17T02:37:43;11.60;80.90
16347;DHT22;8283;48.504;13.734;2024-03-17T02:40:03;11.50;80.90
16347;DHT22;8283;48.504;13.734;2024-03-17T02:42:24;11.50;80.90
16347;DHT22;8283;48.504;13.734;2024-03-17T02:44:44;11.50;80.80
16347;DHT22;8283;48.504;13.734;2024-03-17T02:47:05;11.40;80.80
16347;DHT22;8283;48.504;13.734;2024-03-17T02:49:25;11.30;80.90
16347;DHT22;8283;48.504;13.734;2024-03-17T02:51:46;11.40;81.60
16347;DHT22;8283;48.504;13.734;2024-03-17T02:54:05;11.30;80.70
16347;DHT22;8283;48.504;13.734;2024-03-17T02:56:25;11.20;80.80
16347;DHT22;8283;48.504;13.734;2024-03-17T02:58:45;11.20;81.00
16347;DHT22;8283;48.504;13.734;2024-03-17T03:01:06;11.20;81.20
16347;DHT22;8283;48.504;13.734;2024-03-17T03:03:25;11.20;81.30
16347;DHT22;8283;48.504;13.734;2024-03-17T03:05:45;11.10;81.30
16347;DHT22;8283;48.504;13.734;2024-03-17T03:08:05;11.10;81.30
16347;DHT22;8283;48.504;13.734;2024-03-17T03:10:25;11.20;81.50
16347;DHT22;8283;48.504;13.734;2024-03-17T03:12:44;11.20;81.50
16347;DHT22;8283;48.504;13.734;2024-03-17T03:15:04;11.20;81.50
16347;DHT22;8283;48.504;13.734;2024-03-17T03:17:24;11.10;81.40
16347;DHT22;8283;48.504;13.734;2024-03-17T03:19:43;11.10;81.30
16347;DHT22;8283;48.504;13.734;2024-03-17T03:22:03;11.10;81.30
16347;DHT22;8283;48.504;13.734;2024-03-17T03:24:22;11.10;81.40
16347;DHT22;8283;48.504;13.734;2024-03-17T03:26:41;11.00;81.40
16347;DHT22;8283;48.504;13.734;2024-03-17T03:29:01;11.00;81.30
16347;DHT22;8283;48.504;13.734;2024-03-17T03:31:21;11.00;81.30
16347;DHT22;8283;48.504;13.734;2024-03-17T03:33:41;11.00;81.40
16347;DHT22;8283;48.504;13.734;2024-03-17T03:36:07;11.00;81.60
16347;DHT22;8283;48.504;13.734;2024-03-17T03:38:27;11.00;81.90
16347;DHT22;8283;48.504;13.734;2024-03-17T03:40:47;10.90;81.40
16347;DHT22;8283;48.504;13.734;2024-03-17T03:43:11;10.90;81.40
16347;DHT22;8283;48.504;13.734;2024-03-17T03:45:34;10.80;81.40
16347;DHT22;8283;48.504;13.734;2024-03-17T03:47:54;10.80;81.30
16347;DHT22;8283;48.504;13.734;2024-03-17T03:50:16;10.80;81.40
16347;DHT22;8283;48.504;13.734;2024-03-17T03:52:37;10.70;81.50
16347;DHT22;8283;48.504;13.734;2024-03-17T03:54:56;10.70;81.50
16347;DHT22;8283;48.504;13.734;2024-03-17T03:57:16;10.70;81.60
16347;DHT22;8283;48.504;13.734;2024-03-17T03:59:35;10.60;81.60
16347;DHT22;8283;48.504;13.734;2024-03-17T04:01:55;10.60;81.70
16347;DHT22;8283;48.504;13.734;2024-03-17T04:04:15;10.60;81.80
16347;DHT22;8283;48.504;13.734;2024-03-17T04:06:35;10.60;81.90
16347;DHT22;8283;48.504;13.734;2024-03-17T04:08:56;10.60;82.00
16347;DHT22;8283;48.504;13.734;2024-03-17T04:11:16;10.50;82.10
16347;DHT22;8283;48.504;13.734;2024-03-17T04:13:35;10.60;82.20
16347;DHT22;8283;48.504;13.734;2024-03-17T04:15:55;10.60;83.00
16347;DHT22;8283;48.504;13.734;2024-03-17T04:18:15;10.60;82.40
16347;DHT22;8283;48.504;13.734;2024-03-17T04:20:36;10.60;82.50
16347;DHT22;8283;48.504;13.734;2024-03-17T04:22:56;10.70;82.60
16347;DHT22;8283;48.504;13.734;2024-03-17T04:25:15;10.60;82.60
16347;DHT22;8283;48.504;13.734;2024-03-17T04:27:35;10.70;82.70
16347;DHT22;8283;48.504;13.734;2024-03-17T04:29:56;10.70;82.80
16347;DHT22;8283;48.504;13.734;2024-03-17T04:32:15;10.70;82.90
16347;DHT22;8283;48.504;13.734;2024-03-17T04:34:35;10.80;83.80
16347;DHT22;8283;48.504;13.734;2024-03-17T04:36:54;10.80;82.60
16347;DHT22;8283;48.504;13.734;2024-03-17T04:39:13;10.80;82.50
16347;DHT22;8283;48.504;13.734;2024-03-17T04:41:33;10.80;82.50
16347;DHT22;8283;48.504;13.734;2024-03-17T04:43:53;10.80;82.40
16347;DHT22;8283;48.504;13.734;2024-03-17T04:46:13;10.80;82.40
16347;DHT22;8283;48.504;13.734;2024-03-17T04:48:33;10.80;82.60
16347;DHT22;8283;48.504;13.734;2024-03-17T04:50:53;10.80;82.50
16347;DHT22;8283;48.504;13.734;2024-03-17T04:53:13;10.80;82.40
16347;DHT22;8283;48.504;13.734;2024-03-17T04:55:32;10.80;82.60
16347;DHT22;8283;48.504;13.734;2024-03-17T04:57:52;10.80;83.20
16347;DHT22;8283;48.504;13.734;2024-03-17T05:00:11;10.80;82.60
16347;DHT22;8283;48.504;13.734;2024-03-17T05:02:33;10.90;82.70
16347;DHT22;8283;48.504;13.734;2024-03-17T05:04:52;10.90;82.60
16347;DHT22;8283;48.504;13.734;2024-03-17T05:07:12;10.90;82.50
16347;DHT22;8283;48.504;13.734;2024-03-17T05:09:31;10.90;82.40
16347;DHT22;8283;48.504;13.734;2024-03-17T05:11:51;10.90;82.40
16347;DHT22;8283;48.504;13.734;2024-03-17T05:14:11;10.90;82.50
16347;DHT22;8283;48.504;13.734;2024-03-17T05:16:31;10.90;82.50
16347;DHT22;8283;48.504;13.734;2024-03-17T05:18:50;10.90;82.40
16347;DHT22;8283;48.504;13.734;2024-03-17T05:21:10;10.90;82.30
16347;DHT22;8283;48.504;13.734;2024-03-17T05:23:31;10.90;82.30
16347;DHT22;8283;48.504;13.734;2024-03-17T05:25:54;10.80;82.20
16347;DHT22;8283;48.504;13.734;2024-03-17T05:28:14;10.80;82.40
16347;DHT22;8283;48.504;13.734;2024-03-17T05:30:36;10.70;82.10
16347;DHT22;8283;48.504;13.734;2024-03-17T05:32:55;10.80;82.30
16347;DHT22;8283;48.504;13.734;2024-03-17T05:35:14;10.80;82.30
16347;DHT22;8283;48.504;13.734;2024-03-17T05:37:33;10.70;82.40
16347;DHT22;8283;48.504;13.734;2024-03-17T05:39:53;10.70;82.50
16347;DHT22;8283;48.504;13.734;2024-03-17T05:42:13;10.70;82.60
16347;DHT22;8283;48.504;13.734;2024-03-17T05:44:32;10.80;82.70
16347;DHT22;8283;48.504;13.734;2024-03-17T05:47:08;11.30;83.00
16347;DHT22;8283;48.504;13.734;2024-03-17T05:49:28;10.80;82.70
16347;DHT22;8283;48.504;13.734;2024-03-17T05:51:48;10.80;82.70
16347;DHT22;8283;48.504;13.734;2024-03-17T05:54:07;10.80;82.70
16347;DHT22;8283;48.504;13.734;2024-03-17T05:56:27;10.80;82.60
16347;DHT22;8283;48.504;13.734;2024-03-17T05:58:46;10.80;82.60
16347;DHT22;8283;48.504;13.734;2024-03-17T06:01:06;10.90;82.70
16347;DHT22;8283;48.504;13.734;2024-03-17T06:03:28;10.90;82.70
16347;DHT22;8283;48.504;13.734;2024-03-17T06:05:48;10.90;82.60
16347;DHT22;8283;48.504;13.734;2024-03-17T06:08:07;10.90;82.50
16347;DHT22;8283;48.504;13.734;2024-03-17T06:10:28;11.00;82.60
16347;DHT22;8283;48.504;13.734;2024-03-17T06:12:48;11.00;82.50
16347;DHT22;8283;48.504;13.734;2024-03-17T06:15:08;11.00;82.40
16347;DHT22;8283;48.504;13.734;2024-03-17T06:17:27;11.00;82.30
16347;DHT22;8283;48.504;13.734;2024-03-17T06:19:46;11.00;82.40
16347;DHT22;8283;48.504;13.734;2024-03-17T06:22:06;11.00;82.40
16347;DHT22;8283;48.504;13.734;2024-03-17T06:24:25;11.00;82.40
16347;DHT22;8283;48.504;13.734;2024-03-17T06:26:44;11.00;82.30
16347;DHT22;8283;48.504;13.734;2024-03-17T06:29:04;11.00;82.30
16347;DHT22;8283;48.504;13.734;2024-03-17T06:31:23;10.50;81.80
16347;DHT22;8283;48.504;13.734;2024-03-17T06:33:42;11.00;82.30
16347;DHT22;8283;48.504;13.734;2024-03-17T06:36:03;11.00;82.20
16347;DHT22;8283;48.504;13.734;2024-03-17T06:38:23;11.00;82.10
16347;DHT22;8283;48.504;13.734;2024-03-17T06:40:51;11.00;82.30
16347;DHT22;8283;48.504;13.734;2024-03-17T06:43:11;11.00;81.90
16347;DHT22;8283;48.504;13.734;2024-03-17T06:45:31;11.00;81.90
16347;DHT22;8283;48.504;13.734;2024-03-17T06:47:50;11.00;81.90
16347;DHT22;8283;48.504;13.734;2024-03-17T06:50:10;11.00;82.00
16347;DHT22;8283;48.504;13.734;2024-03-17T06:52:29;10.90;82.10
16347;DHT22;8283;48.504;13.734;2024-03-17T06:54:49;11.00;82.20
16347;DHT22;8283;48.504;13.734;2024-03-17T06:57:09;10.90;82.40
16347;DHT22;8283;48.504;13.734;2024-03-17T06:59:28;11.00;82.70
16347;DHT22;8283;48.504;13.734;2024-03-17T07:01:51;11.10;82.80
16347;DHT22;8283;48.504;13.734;2024-03-17T07:04:11;11.10;82.80
16347;DHT22;8283;48.504;13.734;2024-03-17T07:06:30;11.20;83.00
16347;DHT22;8283;48.504;13.734;2024-03-17T07:08:49;11.30;83.00
16347;DHT22;8283;48.504;13.734;2024-03-17T07:11:08;11.30;82.80
16347;DHT22;8283;48.504;13.734;2024-03-17T07:13:29;11.40;82.80
16347;DHT22;8283;48.504;13.734;2024-03-17T07:15:49;11.40;82.80
16347;DHT22;8283;48.504;13.734;2024-03-17T07:18:08;11.50;82.80
16347;DHT22;8283;48.504;13.734;2024-03-17T07:20:28;11.50;82.80
16347;DHT22;8283;48.504;13.734;2024-03-17T07:22:48;11.60;82.70
16347;DHT22;8283;48.504;13.734;2024-03-17T07:25:09;11.60;82.60
16347;DHT22;8283;48.504;13.734;2024-03-17T07:27:29;11.70;82.60
16347;DHT22;8283;48.504;13.734;2024-03-17T07:29:48;11.70;82.50
16347;DHT22;8283;48.504;13.734;2024-03-17T07:32:08;11.80;82.70
16347;DHT22;8283;48.504;13.734;2024-03-17T07:34:33;11.80;82.60
16347;DHT22;8283;48.504;13.734;2024-03-17T07:36:54;11.90;82.70
16347;DHT22;8283;48.504;13.734;2024-03-17T07:39:14;12.00;83.20
16347;DHT22;8283;48.504;13.734;2024-03-17T07:41:33;12.10;83.20
16347;DHT22;8283;48.504;13.734;2024-03-17T07:43:53;12.20;83.00
16347;DHT22;8283;48.504;13.734;2024-03-17T07:46:12;12.30;83.00
16347;DHT22;8283;48.504;13.734;2024-03-17T07:48:35;12.40;82.60
16347;DHT22;8283;48.504;13.734;2024-03-17T07:50:59;12.50;82.40
16347;DHT22;8283;48.504;13.734;2024-03-17T07:53:19;12.60;82.60
16347;DHT22;8283;48.504;13.734;2024-03-17T07:55:39;12.70;82.90
16347;DHT22;8283;48.504;13.734;2024-03-17T07:57:58;12.90;83.10
16347;DHT22;8283;48.504;13.734;2024-03-17T08:00:17;13.00;83.20
16347;DHT22;8283;48.504;13.734;2024-03-17T08:02:37;13.20;83.20
16347;DHT22;8283;48.504;13.734;2024-03-17T08:04:56;13.40;82.60
16347;DHT22;8283;48.504;13.734;2024-03-17T08:07:16;13.60;81.70
16347;DHT22;8283;48.504;13.734;2024-03-17T08:09:36;13.80;81.90
16347;DHT22;8283;48.504;13.734;2024-03-17T08:11:55;14.00;81.60
16347;DHT22;8283;48.504;13.734;2024-03-17T08:14:15;14.20;81.30
16347;DHT22;8283;48.504;13.734;2024-03-17T08:16:34;14.30;80.80
16347;DHT22;8283;48.504;13.734;2024-03-17T08:18:54;14.50;80.20
16347;DHT22;8283;48.504;13.734;2024-03-17T08:21:13;14.60;80.30
16347;DHT22;8283;48.504;13.734;2024-03-17T08:23:33;14.80;80.30
16347;DHT22;8283;48.504;13.734;2024-03-17T08:26:04;14.90;80.30
16347;DHT22;8283;48.504;13.734;2024-03-17T08:28:25;15.10;79.80
16347;DHT22;8283;48.504;13.734;2024-03-17T08:31:00;15.30;79.90
16347;DHT22;8283;48.504;13.734;2024-03-17T08:33:21;15.50;79.00
16347;DHT22;8283;48.504;13.734;2024-03-17T08:35:41;15.70;79.90
16347;DHT22;8283;48.504;13.734;2024-03-17T08:38:00;15.90;79.40
16347;DHT22;8283;48.504;13.734;2024-03-17T08:40:20;16.70;79.50
16347;DHT22;8283;48.504;13.734;2024-03-17T08:42:40;16.20;78.70
16347;DHT22;8283;48.504;13.734;2024-03-17T08:45:00;16.40;76.90
16347;DHT22;8283;48.504;13.734;2024-03-17T08:47:19;16.50;77.10
16347;DHT22;8283;48.504;13.734;2024-03-17T08:49:38;16.60;76.80
16347;DHT22;8283;48.504;13.734;2024-03-17T08:51:58;16.70;75.70
16347;DHT22;8283;48.504;13.734;2024-03-17T08:54:17;16.80;75.90
16347;DHT22;8283;48.504;13.734;2024-03-17T08:56:36;17.00;75.10
16347;DHT22;8283;48.504;13.734;2024-03-17T08:58:56;17.00;73.00
16347;DHT22;8283;48.504;13.734;2024-03-17T09:01:15;17.10;72.70
16347;DHT22;8283;48.504;13.734;2024-03-17T09:03:35;17.20;72.80
16347;DHT22;8283;48.504;13.734;2024-03-17T09:05:55;17.30;71.90
16347;DHT22;8283;48.504;13.734;2024-03-17T09:08:17;17.40;71.80
16347;DHT22;8283;48.504;13.734;2024-03-17T09:10:42;17.50;70.80
16347;DHT22;8283;48.504;13.734;2024-03-17T09:13:03;17.50;69.80
16347;DHT22;8283;48.504;13.734;2024-03-17T09:15:22;17.60;69.60
16347;DHT22;8283;48.504;13.734;2024-03-17T09:17:42;17.60;69.70
16347;DHT22;8283;48.504;13.734;2024-03-17T09:20:01;17.70;69.60
16347;DHT22;8283;48.504;13.734;2024-03-17T09:22:20;17.80;69.40
16347;DHT22;8283;48.504;13.734;2024-03-17T09:24:39;17.90;69.40
16347;DHT22;8283;48.504;13.734;2024-03-17T09:27:00;18.00;70.20
16347;DHT22;8283;48.504;13.734;2024-03-17T09:29:19;18.10;70.40
16347;DHT22;8283;48.504;13.734;2024-03-17T09:31:38;18.20;70.00
16347;DHT22;8283;48.504;13.734;2024-03-17T09:34:02;18.30;69.60
16347;DHT22;8283;48.504;13.734;2024-03-17T09:36:21;18.40;68.50
16347;DHT22;8283;48.504;13.734;2024-03-17T09:38:41;18.50;68.40
16347;DHT22;8283;48.504;13.734;2024-03-17T09:41:01;18.60;68.00
16347;DHT22;8283;48.504;13.734;2024-03-17T09:43:22;18.70;68.00
16347;DHT22;8283;48.504;13.734;2024-03-17T09:45:42;18.80;67.20
16347;DHT22;8283;48.504;13.734;2024-03-17T09:48:01;18.90;68.20
16347;DHT22;8283;48.504;13.734;2024-03-17T09:50:20;18.90;66.80
16347;DHT22;8283;48.504;13.734;2024-03-17T09:52:42;19.00;66.80
16347;DHT22;8283;48.504;13.734;2024-03-17T09:55:12;19.00;66.20
16347;DHT22;8283;48.504;13.734;2024-03-17T09:57:34;19.10;64.90
16347;DHT22;8283;48.504;13.734;2024-03-17T09:59:54;19.20;67.00
16347;DHT22;8283;48.504;13.734;2024-03-17T10:02:16;19.20;63.10
16347;DHT22;8283;48.504;13.734;2024-03-17T10:04:37;19.30;66.40
16347;DHT22;8283;48.504;13.734;2024-03-17T10:06:56;19.30;66.60
16347;DHT22;8283;48.504;13.734;2024-03-17T10:09:17;19.20;65.70
16347;DHT22;8283;48.504;13.734;2024-03-17T10:11:41;19.10;65.30
16347;DHT22;8283;48.504;13.734;2024-03-17T10:14:08;19.00;65.60
16347;DHT22;8283;48.504;13.734;2024-03-17T10:16:29;18.90;64.10
16347;DHT22;8283;48.504;13.734;2024-03-17T10:18:48;18.90;65.50
16347;DHT22;8283;48.504;13.734;2024-03-17T10:21:25;18.80;64.80
16347;DHT22;8283;48.504;13.734;2024-03-17T10:23:44;18.70;62.60
16347;DHT22;8283;48.504;13.734;2024-03-17T10:26:13;18.60;65.00
16347;DHT22;8283;48.504;13.734;2024-03-17T10:28:33;18.50;63.40
16347;DHT22;8283;48.504;13.734;2024-03-17T10:31:00;18.40;65.30
16347;DHT22;8283;48.504;13.734;2024-03-17T10:33:22;18.40;63.20
16347;DHT22;8283;48.504;13.734;2024-03-17T10:35:44;18.50;65.00
16347;DHT22;8283;48.504;13.734;2024-03-17T10:38:05;18.50;65.40
16347;DHT22;8283;48.504;13.734;2024-03-17T10:40:26;18.50;65.20
16347;DHT22;8283;48.504;13.734;2024-03-17T10:42:45;18.60;65.20
16347;DHT22;8283;48.504;13.734;2024-03-17T10:45:08;18.60;62.20
16347;DHT22;8283;48.504;13.734;2024-03-17T10:47:28;19.30;63.40
16347;DHT22;8283;48.504;13.734;2024-03-17T10:49:50;18.80;66.10
16347;DHT22;8283;48.504;13.734;2024-03-17T10:52:16;18.90;65.60
16347;DHT22;8283;48.504;13.734;2024-03-17T10:54:40;19.00;64.90
16347;DHT22;8283;48.504;13.734;2024-03-17T10:57:32;19.10;64.20
16347;DHT22;8283;48.504;13.734;2024-03-17T10:59:55;19.20;62.40
16347;DHT22;8283;48.504;13.734;2024-03-17T11:02:34;19.30;64.90
16347;DHT22;8283;48.504;13.734;2024-03-17T11:04:57;19.50;59.80
16347;DHT22;8283;48.504;13.734;2024-03-17T11:07:18;19.70;64.10
16347;DHT22;8283;48.504;13.734;2024-03-17T11:09:38;19.80;64.00
16347;DHT22;8283;48.504;13.734;2024-03-17T11:11:58;19.90;62.20
16347;DHT22;8283;48.504;13.734;2024-03-17T11:14:19;20.00;64.70
16347;DHT22;8283;48.504;13.734;2024-03-17T11:16:41;20.10;64.00
16347;DHT22;8283;48.504;13.734;2024-03-17T11:19:06;20.10;64.10
16347;DHT22;8283;48.504;13.734;2024-03-17T11:21:26;20.20;62.10
16347;DHT22;8283;48.504;13.734;2024-03-17T11:24:01;20.20;63.50
16347;DHT22;8283;48.504;13.734;2024-03-17T11:26:31;20.20;61.20
16347;DHT22;8283;48.504;13.734;2024-03-17T11:28:52;20.10;60.80
16347;DHT22;8283;48.504;13.734;2024-03-17T11:31:33;19.90;61.60
16347;DHT22;8283;48.504;13.734;2024-03-17T11:33:54;19.80;59.90
16347;DHT22;8283;48.504;13.734;2024-03-17T11:41:44;19.60;61.20
16347;DHT22;8283;48.504;13.734;2024-03-17T11:46:37;19.60;60.50
16347;DHT22;8283;48.504;13.734;2024-03-17T11:48:56;19.60;62.50
16347;DHT22;8283;48.504;13.734;2024-03-17T11:51:16;19.60;62.10
16347;DHT22;8283;48.504;13.734;2024-03-17T11:53:35;19.60;62.00
16347;DHT22;8283;48.504;13.734;2024-03-17T11:55:54;19.60;61.90
16347;DHT22;8283;48.504;13.734;2024-03-17T11:58:14;19.60;61.80
16347;DHT22;8283;48.504;13.734;2024-03-17T12:00:35;19.60;61.70
16347;DHT22;8283;48.504;13.734;2024-03-17T12:02:55;19.60;61.40
16347;DHT22;8283;48.504;13.734;2024-03-17T12:05:17;19.50;61.00
16347;DHT22;8283;48.504;13.734;2024-03-17T12:07:42;19.50;61.00
16347;DHT22;8283;48.504;13.734;2024-03-17T12:10:02;19.60;60.70
16347;DHT22;8283;48.504;13.734;2024-03-17T12:12:27;19.60;61.50
16347;DHT22;8283;48.504;13.734;2024-03-17T12:14:56;19.70;61.00
16347;DHT22;8283;48.504;13.734;2024-03-17T12:17:21;19.70;60.50
16347;DHT22;8283;48.504;13.734;2024-03-17T12:19:44;19.70;59.10
16347;DHT22;8283;48.504;13.734;2024-03-17T12:22:04;19.80;60.80
16347;DHT22;8283;48.504;13.734;2024-03-17T12:24:26;19.90;61.00
16347;DHT22;8283;48.504;13.734;2024-03-17T12:26:46;20.10;60.90
16347;DHT22;8283;48.504;13.734;2024-03-17T12:29:22;20.20;60.80
16347;DHT22;8283;48.504;13.734;2024-03-17T12:31:41;20.30;59.10
16347;DHT22;8283;48.504;13.734;2024-03-17T12:34:01;20.40;60.60
16347;DHT22;8283;48.504;13.734;2024-03-17T12:36:21;20.40;60.00
16347;DHT22;8283;48.504;13.734;2024-03-17T12:38:40;20.40;59.70
16347;DHT22;8283;48.504;13.734;2024-03-17T12:41:00;20.40;59.10
16347;DHT22;8283;48.504;13.734;2024-03-17T12:43:19;20.40;59.00
16347;DHT22;8283;48.504;13.734;2024-03-17T12:45:38;20.30;58.80
16347;DHT22;8283;48.504;13.734;2024-03-17T12:47:57;20.20;59.00
16347;DHT22;8283;48.504;13.734;2024-03-17T12:50:17;20.10;58.90
16347;DHT22;8283;48.504;13.734;2024-03-17T12:52:37;20.00;58.70
16347;DHT22;8283;48.504;13.734;2024-03-17T12:54:58;20.00;58.80
16347;DHT22;8283;48.504;13.734;2024-03-17T12:57:36;19.90;58.60
16347;DHT22;8283;48.504;13.734;2024-03-17T13:00:18;19.80;58.70
16347;DHT22;8283;48.504;13.734;2024-03-17T13:02:50;19.80;58.30
16347;DHT22;8283;48.504;13.734;2024-03-17T13:05:17;19.80;59.00
16347;DHT22;8283;48.504;13.734;2024-03-17T13:07:37;19.80;58.80
16347;DHT22;8283;48.504;13.734;2024-03-17T13:09:56;19.90;59.00
16347;DHT22;8283;48.504;13.734;2024-03-17T13:12:16;19.90;58.70
16347;DHT22;8283;48.504;13.734;2024-03-17T13:14:35;19.90;58.60
16347;DHT22;8283;48.504;13.734;2024-03-17T13:16:54;19.80;58.30
16347;DHT22;8283;48.504;13.734;2024-03-17T13:19:13;19.70;58.30
16347;DHT22;8283;48.504;13.734;2024-03-17T13:21:33;19.60;58.00
16347;DHT22;8283;48.504;13.734;2024-03-17T13:23:52;19.50;58.00
16347;DHT22;8283;48.504;13.734;2024-03-17T13:26:12;19.40;57.90
16347;DHT22;8283;48.504;13.734;2024-03-17T13:28:31;19.30;57.90
16347;DHT22;8283;48.504;13.734;2024-03-17T13:30:51;19.20;58.00
16347;DHT22;8283;48.504;13.734;2024-03-17T13:33:10;19.10;58.10
16347;DHT22;8283;48.504;13.734;2024-03-17T13:35:31;19.00;58.10
16347;DHT22;8283;48.504;13.734;2024-03-17T13:37:50;19.00;57.10
16347;DHT22;8283;48.504;13.734;2024-03-17T13:40:11;19.00;58.30
16347;DHT22;8283;48.504;13.734;2024-03-17T13:42:31;18.90;59.00
16347;DHT22;8283;48.504;13.734;2024-03-17T13:44:51;18.80;58.40
16347;DHT22;8283;48.504;13.734;2024-03-17T13:47:12;18.80;58.50
16347;DHT22;8283;48.504;13.734;2024-03-17T13:49:33;18.80;58.40
16347;DHT22;8283;48.504;13.734;2024-03-17T13:51:53;18.70;58.50
16347;DHT22;8283;48.504;13.734;2024-03-17T13:54:12;18.80;58.80
16347;DHT22;8283;48.504;13.734;2024-03-17T13:56:31;18.80;58.90
16347;DHT22;8283;48.504;13.734;2024-03-17T13:58:51;18.80;58.90
16347;DHT22;8283;48.504;13.734;2024-03-17T14:01:10;18.90;59.00
16347;DHT22;8283;48.504;13.734;2024-03-17T14:03:29;19.00;58.90
16347;DHT22;8283;48.504;13.734;2024-03-17T14:05:50;19.00;58.80
16347;DHT22;8283;48.504;13.734;2024-03-17T14:08:09;19.10;58.80
16347;DHT22;8283;48.504;13.734;2024-03-17T14:10:28;19.20;58.80
16347;DHT22;8283;48.504;13.734;2024-03-17T14:12:48;19.30;58.90
16347;DHT22;8283;48.504;13.734;2024-03-17T14:15:09;19.30;58.70
16347;DHT22;8283;48.504;13.734;2024-03-17T14:17:29;19.40;58.60
16347;DHT22;8283;48.504;13.734;2024-03-17T14:19:48;19.40;58.40
16347;DHT22;8283;48.504;13.734;2024-03-17T14:22:08;19.40;58.30
16347;DHT22;8283;48.504;13.734;2024-03-17T14:24:27;19.40;57.80
16347;DHT22;8283;48.504;13.734;2024-03-17T14:26:47;19.50;57.90
16347;DHT22;8283;48.504;13.734;2024-03-17T14:29:06;19.50;58.00
16347;DHT22;8283;48.504;13.734;2024-03-17T14:31:26;19.50;57.90
16347;DHT22;8283;48.504;13.734;2024-03-17T14:33:45;19.40;57.80
16347;DHT22;8283;48.504;13.734;2024-03-17T14:36:05;19.50;57.90
16347;DHT22;8283;48.504;13.734;2024-03-17T14:38:25;19.60;57.90
16347;DHT22;8283;48.504;13.734;2024-03-17T14:40:44;19.60;57.70
16347;DHT22;8283;48.504;13.734;2024-03-17T14:43:04;19.60;57.70
16347;DHT22;8283;48.504;13.734;2024-03-17T14:45:24;19.70;57.80
16347;DHT22;8283;48.504;13.734;2024-03-17T14:47:44;19.70;57.70
16347;DHT22;8283;48.504;13.734;2024-03-17T14:50:04;19.60;57.20
16347;DHT22;8283;48.504;13.734;2024-03-17T14:52:23;19.60;57.40
16347;DHT22;8283;48.504;13.734;2024-03-17T14:54:43;19.60;57.40
16347;DHT22;8283;48.504;13.734;2024-03-17T14:57:03;19.70;57.60